sensor_id;sensor_type;location;lat;lon;timestamp;P1;durP1;ratioP1;P2;durP2;ratioP2
9222;SDS011;7557;51.698;3.942;2023-11-21T00:02:26;531.73;;;510.70;;
9222;SDS011;7557;51.698;3.942;2023-11-21T00:04:53;543.27;;;521.37;;
9222;SDS011;7557;51.698;3.942;2023-11-21T00:07:20;544.77;;;522.67;;
9222;SDS011;7557;51.698;3.942;2023-11-21T00:09:47;558.77;;;536.47;;
9222;SDS011;7557;51.698;3.942;2023-11-21T00:12:15;568.57;;;544.33;;
9222;SDS011;7557;51.698;3.942;2023-11-21T00:14:42;606.30;;;581.00;;
9222;SDS011;7557;51.698;3.942;2023-11-21T00:17:10;608.87;;;582.53;;
9222;SDS011;7557;51.698;3.942;2023-11-21T00:19:38;598.10;;;572.77;;
9222;SDS011;7557;51.698;3.942;2023-11-21T00:22:05;632.33;;;605.00;;
9222;SDS011;7557;51.698;3.942;2023-11-21T00:24:32;627.07;;;600.33;;
9222;SDS011;7557;51.698;3.942;2023-11-21T00:26:59;623.20;;;595.90;;
9222;SDS011;7557;51.698;3.942;2023-11-21T00:29:26;639.80;;;611.63;;
9222;SDS011;7557;51.698;3.942;2023-11-21T00:31:53;623.83;;;596.77;;
9222;SDS011;7557;51.698;3.942;2023-11-21T00:34:20;610.90;;;584.97;;
9222;SDS011;7557;51.698;3.942;2023-11-21T00:36:49;629.53;;;602.13;;
9222;SDS011;7557;51.698;3.942;2023-11-21T00:39:16;657.67;;;627.97;;
9222;SDS011;7557;51.698;3.942;2023-11-21T00:41:43;671.07;;;641.33;;
9222;SDS011;7557;51.698;3.942;2023-11-21T00:47:18;635.43;;;606.97;;
9222;SDS011;7557;51.698;3.942;2023-11-21T00:49:45;678.43;;;647.90;;
9222;SDS011;7557;51.698;3.942;2023-11-21T00:52:15;692.73;;;661.13;;
9222;SDS011;7557;51.698;3.942;2023-11-21T00:54:42;680.77;;;650.73;;
9222;SDS011;7557;51.698;3.942;2023-11-21T00:57:10;712.30;;;680.53;;
9222;SDS011;7557;51.698;3.942;2023-11-21T00:59:37;718.07;;;685.63;;
9222;SDS011;7557;51.698;3.942;2023-11-21T01:02:04;697.83;;;666.03;;
9222;SDS011;7557;51.698;3.942;2023-11-21T01:04:35;711.87;;;678.93;;
9222;SDS011;7557;51.698;3.942;2023-11-21T01:07:02;701.77;;;669.67;;
9222;SDS011;7557;51.698;3.942;2023-11-21T01:09:32;699.73;;;667.93;;
9222;SDS011;7557;51.698;3.942;2023-11-21T01:11:59;701.43;;;669.87;;
9222;SDS011;7557;51.698;3.942;2023-11-21T01:14:26;696.23;;;664.77;;
9222;SDS011;7557;51.698;3.942;2023-11-21T01:16:54;697.30;;;665.97;;
9222;SDS011;7557;51.698;3.942;2023-11-21T01:19:21;706.13;;;674.90;;
9222;SDS011;7557;51.698;3.942;2023-11-21T01:21:48;688.60;;;657.43;;
9222;SDS011;7557;51.698;3.942;2023-11-21T01:24:17;724.57;;;692.07;;
9222;SDS011;7557;51.698;3.942;2023-11-21T01:26:46;707.83;;;677.20;;
9222;SDS011;7557;51.698;3.942;2023-11-21T01:29:13;722.20;;;689.43;;
9222;SDS011;7557;51.698;3.942;2023-11-21T01:31:40;724.13;;;691.37;;
9222;SDS011;7557;51.698;3.942;2023-11-21T01:34:07;708.93;;;677.97;;
9222;SDS011;7557;51.698;3.942;2023-11-21T01:36:34;721.47;;;689.10;;
9222;SDS011;7557;51.698;3.942;2023-11-21T01:39:02;720.53;;;688.90;;
9222;SDS011;7557;51.698;3.942;2023-11-21T01:41:33;663.10;;;634.93;;
9222;SDS011;7557;51.698;3.942;2023-11-21T01:44:03;660.30;;;632.43;;
9222;SDS011;7557;51.698;3.942;2023-11-21T01:46:33;689.43;;;659.23;;
9222;SDS011;7557;51.698;3.942;2023-11-21T01:49:00;656.70;;;629.37;;
9222;SDS011;7557;51.698;3.942;2023-11-21T01:51:27;669.00;;;640.87;;
9222;SDS011;7557;51.698;3.942;2023-11-21T01:53:54;678.13;;;648.87;;
9222;SDS011;7557;51.698;3.942;2023-11-21T01:56:22;689.83;;;660.13;;
9222;SDS011;7557;51.698;3.942;2023-11-21T01:58:51;687.00;;;657.77;;
9222;SDS011;7557;51.698;3.942;2023-11-21T02:01:20;679.60;;;650.03;;
9222;SDS011;7557;51.698;3.942;2023-11-21T02:03:47;689.73;;;659.70;;
9222;SDS011;7557;51.698;3.942;2023-11-21T02:06:14;667.40;;;639.20;;
9222;SDS011;7557;51.698;3.942;2023-11-21T02:08:42;715.63;;;684.30;;
9222;SDS011;7557;51.698;3.942;2023-11-21T02:11:09;745.60;;;711.13;;
9222;SDS011;7557;51.698;3.942;2023-11-21T02:13:38;775.50;;;737.93;;
9222;SDS011;7557;51.698;3.942;2023-11-21T02:16:08;781.60;;;744.67;;
9222;SDS011;7557;51.698;3.942;2023-11-21T02:18:39;782.00;;;744.70;;
9222;SDS011;7557;51.698;3.942;2023-11-21T02:21:07;781.27;;;744.37;;
9222;SDS011;7557;51.698;3.942;2023-11-21T02:23:36;768.43;;;732.00;;
9222;SDS011;7557;51.698;3.942;2023-11-21T02:26:07;758.90;;;723.20;;
9222;SDS011;7557;51.698;3.942;2023-11-21T02:28:35;775.17;;;739.03;;
9222;SDS011;7557;51.698;3.942;2023-11-21T02:31:04;738.80;;;704.20;;
9222;SDS011;7557;51.698;3.942;2023-11-21T02:33:32;759.33;;;723.43;;
9222;SDS011;7557;51.698;3.942;2023-11-21T02:36:00;739.03;;;704.60;;
9222;SDS011;7557;51.698;3.942;2023-11-21T02:38:28;752.23;;;716.67;;
9222;SDS011;7557;51.698;3.942;2023-11-21T02:40:57;765.17;;;729.30;;
9222;SDS011;7557;51.698;3.942;2023-11-21T02:43:24;793.67;;;755.80;;
9222;SDS011;7557;51.698;3.942;2023-11-21T02:45:52;755.03;;;719.27;;
9222;SDS011;7557;51.698;3.942;2023-11-21T02:48:19;789.97;;;751.60;;
9222;SDS011;7557;51.698;3.942;2023-11-21T02:50:49;776.47;;;740.30;;
9222;SDS011;7557;51.698;3.942;2023-11-21T02:53:16;756.27;;;720.40;;
9222;SDS011;7557;51.698;3.942;2023-11-21T02:55:43;755.77;;;717.97;;
9222;SDS011;7557;51.698;3.942;2023-11-21T02:58:12;753.33;;;718.53;;
9222;SDS011;7557;51.698;3.942;2023-11-21T03:00:39;765.87;;;728.63;;
9222;SDS011;7557;51.698;3.942;2023-11-21T03:03:07;764.10;;;728.73;;
9222;SDS011;7557;51.698;3.942;2023-11-21T03:05:34;730.70;;;693.13;;
9222;SDS011;7557;51.698;3.942;2023-11-21T03:08:02;732.60;;;687.67;;
9222;SDS011;7557;51.698;3.942;2023-11-21T03:10:30;737.23;;;685.50;;
9222;SDS011;7557;51.698;3.942;2023-11-21T03:12:58;721.40;;;673.97;;
9222;SDS011;7557;51.698;3.942;2023-11-21T03:15:26;730.30;;;686.43;;
9222;SDS011;7557;51.698;3.942;2023-11-21T03:17:53;714.27;;;676.10;;
9222;SDS011;7557;51.698;3.942;2023-11-21T03:20:20;729.90;;;686.90;;
9222;SDS011;7557;51.698;3.942;2023-11-21T03:22:47;706.13;;;670.23;;
9222;SDS011;7557;51.698;3.942;2023-11-21T03:25:15;711.07;;;670.40;;
9222;SDS011;7557;51.698;3.942;2023-11-21T03:27:43;731.67;;;690.03;;
9222;SDS011;7557;51.698;3.942;2023-11-21T03:30:11;721.50;;;681.17;;
9222;SDS011;7557;51.698;3.942;2023-11-21T03:32:39;734.43;;;699.60;;
9222;SDS011;7557;51.698;3.942;2023-11-21T03:35:07;715.73;;;682.10;;
9222;SDS011;7557;51.698;3.942;2023-11-21T03:37:35;728.00;;;695.43;;
9222;SDS011;7557;51.698;3.942;2023-11-21T03:40:04;710.27;;;675.83;;
9222;SDS011;7557;51.698;3.942;2023-11-21T03:42:33;725.50;;;691.03;;
9222;SDS011;7557;51.698;3.942;2023-11-21T03:45:01;727.57;;;693.80;;
9222;SDS011;7557;51.698;3.942;2023-11-21T03:47:29;707.13;;;675.53;;
9222;SDS011;7557;51.698;3.942;2023-11-21T03:49:58;685.13;;;654.30;;
9222;SDS011;7557;51.698;3.942;2023-11-21T03:52:26;698.17;;;667.67;;
9222;SDS011;7557;51.698;3.942;2023-11-21T03:54:53;704.20;;;673.20;;
9222;SDS011;7557;51.698;3.942;2023-11-21T03:57:21;712.53;;;680.33;;
9222;SDS011;7557;51.698;3.942;2023-11-21T03:59:50;744.27;;;710.93;;
9222;SDS011;7557;51.698;3.942;2023-11-21T04:02:17;745.07;;;710.80;;
9222;SDS011;7557;51.698;3.942;2023-11-21T04:04:44;714.07;;;681.37;;
9222;SDS011;7557;51.698;3.942;2023-11-21T04:07:13;687.73;;;657.63;;
9222;SDS011;7557;51.698;3.942;2023-11-21T04:09:41;734.37;;;700.33;;
9222;SDS011;7557;51.698;3.942;2023-11-21T04:12:09;702.33;;;669.63;;
9222;SDS011;7557;51.698;3.942;2023-11-21T04:14:36;737.00;;;699.23;;
9222;SDS011;7557;51.698;3.942;2023-11-21T04:17:04;713.77;;;679.07;;
9222;SDS011;7557;51.698;3.942;2023-11-21T04:19:31;737.87;;;699.67;;
9222;SDS011;7557;51.698;3.942;2023-11-21T04:21:59;704.77;;;664.27;;
9222;SDS011;7557;51.698;3.942;2023-11-21T04:24:28;720.27;;;677.73;;
9222;SDS011;7557;51.698;3.942;2023-11-21T04:26:55;729.43;;;689.23;;
9222;SDS011;7557;51.698;3.942;2023-11-21T04:29:22;712.43;;;676.73;;
9222;SDS011;7557;51.698;3.942;2023-11-21T04:31:50;675.90;;;642.50;;
9222;SDS011;7557;51.698;3.942;2023-11-21T04:34:18;682.47;;;650.60;;
9222;SDS011;7557;51.698;3.942;2023-11-21T04:36:45;697.27;;;664.50;;
9222;SDS011;7557;51.698;3.942;2023-11-21T04:39:12;700.07;;;665.93;;
9222;SDS011;7557;51.698;3.942;2023-11-21T04:41:41;724.77;;;689.70;;
9222;SDS011;7557;51.698;3.942;2023-11-21T04:44:08;708.53;;;674.97;;
9222;SDS011;7557;51.698;3.942;2023-11-21T04:46:36;703.30;;;670.43;;
9222;SDS011;7557;51.698;3.942;2023-11-21T04:49:03;704.30;;;672.20;;
9222;SDS011;7557;51.698;3.942;2023-11-21T04:51:30;703.83;;;670.87;;
9222;SDS011;7557;51.698;3.942;2023-11-21T04:53:58;707.10;;;673.57;;
9222;SDS011;7557;51.698;3.942;2023-11-21T04:56:25;696.60;;;663.33;;
9222;SDS011;7557;51.698;3.942;2023-11-21T04:58:54;698.50;;;667.00;;
9222;SDS011;7557;51.698;3.942;2023-11-21T05:01:21;700.47;;;669.33;;
9222;SDS011;7557;51.698;3.942;2023-11-21T05:03:49;686.33;;;656.20;;
9222;SDS011;7557;51.698;3.942;2023-11-21T05:06:17;699.00;;;668.27;;
9222;SDS011;7557;51.698;3.942;2023-11-21T05:08:45;675.50;;;646.50;;
9222;SDS011;7557;51.698;3.942;2023-11-21T05:11:22;670.17;;;641.03;;
9222;SDS011;7557;51.698;3.942;2023-11-21T05:13:51;634.63;;;607.90;;
9222;SDS011;7557;51.698;3.942;2023-11-21T05:16:20;632.07;;;605.47;;
9222;SDS011;7557;51.698;3.942;2023-11-21T05:18:48;651.80;;;625.17;;
9222;SDS011;7557;51.698;3.942;2023-11-21T05:21:16;600.03;;;575.30;;
9222;SDS011;7557;51.698;3.942;2023-11-21T05:23:47;626.53;;;600.47;;
9222;SDS011;7557;51.698;3.942;2023-11-21T05:26:14;621.20;;;595.77;;
9222;SDS011;7557;51.698;3.942;2023-11-21T05:28:42;621.23;;;595.37;;
9222;SDS011;7557;51.698;3.942;2023-11-21T05:31:09;715.37;;;682.70;;
9222;SDS011;7557;51.698;3.942;2023-11-21T05:33:38;685.43;;;655.53;;
9222;SDS011;7557;51.698;3.942;2023-11-21T05:36:07;929.13;;;869.13;;
9222;SDS011;7557;51.698;3.942;2023-11-21T05:38:35;757.07;;;719.90;;
9222;SDS011;7557;51.698;3.942;2023-11-21T05:41:02;672.53;;;641.17;;
9222;SDS011;7557;51.698;3.942;2023-11-21T05:43:30;747.33;;;712.17;;
9222;SDS011;7557;51.698;3.942;2023-11-21T05:46:00;755.57;;;718.57;;
9222;SDS011;7557;51.698;3.942;2023-11-21T05:48:27;710.43;;;677.43;;
9222;SDS011;7557;51.698;3.942;2023-11-21T05:50:56;698.10;;;666.97;;
9222;SDS011;7557;51.698;3.942;2023-11-21T05:53:28;709.33;;;675.17;;
9222;SDS011;7557;51.698;3.942;2023-11-21T05:55:55;699.93;;;666.97;;
9222;SDS011;7557;51.698;3.942;2023-11-21T05:58:23;753.03;;;716.27;;
9222;SDS011;7557;51.698;3.942;2023-11-21T06:00:50;746.40;;;709.73;;
9222;SDS011;7557;51.698;3.942;2023-11-21T06:03:18;761.57;;;726.27;;
9222;SDS011;7557;51.698;3.942;2023-11-21T06:05:45;777.50;;;738.23;;
9222;SDS011;7557;51.698;3.942;2023-11-21T06:08:15;739.87;;;704.97;;
9222;SDS011;7557;51.698;3.942;2023-11-21T06:10:43;794.57;;;755.43;;
9222;SDS011;7557;51.698;3.942;2023-11-21T06:13:10;824.07;;;781.43;;
9222;SDS011;7557;51.698;3.942;2023-11-21T06:15:38;824.37;;;781.23;;
9222;SDS011;7557;51.698;3.942;2023-11-21T06:18:06;740.63;;;705.13;;
9222;SDS011;7557;51.698;3.942;2023-11-21T06:20:35;751.43;;;716.10;;
9222;SDS011;7557;51.698;3.942;2023-11-21T06:23:04;769.73;;;732.87;;
9222;SDS011;7557;51.698;3.942;2023-11-21T06:25:34;711.83;;;679.83;;
9222;SDS011;7557;51.698;3.942;2023-11-21T06:28:02;707.87;;;675.47;;
9222;SDS011;7557;51.698;3.942;2023-11-21T06:30:30;743.47;;;708.17;;
9222;SDS011;7557;51.698;3.942;2023-11-21T06:32:57;732.33;;;698.37;;
9222;SDS011;7557;51.698;3.942;2023-11-21T06:35:28;697.10;;;666.30;;
9222;SDS011;7557;51.698;3.942;2023-11-21T06:37:59;696.80;;;666.23;;
9222;SDS011;7557;51.698;3.942;2023-11-21T06:40:26;690.87;;;661.30;;
9222;SDS011;7557;51.698;3.942;2023-11-21T06:42:55;672.80;;;643.93;;
9222;SDS011;7557;51.698;3.942;2023-11-21T06:45:23;669.70;;;641.07;;
9222;SDS011;7557;51.698;3.942;2023-11-21T06:47:51;697.33;;;666.70;;
9222;SDS011;7557;51.698;3.942;2023-11-21T06:50:18;694.43;;;664.27;;
9222;SDS011;7557;51.698;3.942;2023-11-21T06:52:46;675.90;;;647.53;;
9222;SDS011;7557;51.698;3.942;2023-11-21T06:55:13;705.33;;;673.93;;
9222;SDS011;7557;51.698;3.942;2023-11-21T06:57:41;693.77;;;662.90;;
9222;SDS011;7557;51.698;3.942;2023-11-21T07:00:12;712.57;;;680.77;;
9222;SDS011;7557;51.698;3.942;2023-11-21T07:02:42;673.57;;;644.17;;
9222;SDS011;7557;51.698;3.942;2023-11-21T07:05:12;680.27;;;649.93;;
9222;SDS011;7557;51.698;3.942;2023-11-21T07:07:46;640.07;;;613.33;;
9222;SDS011;7557;51.698;3.942;2023-11-21T07:10:14;633.90;;;606.33;;
9222;SDS011;7557;51.698;3.942;2023-11-21T07:12:42;642.07;;;615.27;;
9222;SDS011;7557;51.698;3.942;2023-11-21T07:15:11;626.20;;;600.20;;
9222;SDS011;7557;51.698;3.942;2023-11-21T07:17:39;607.00;;;581.67;;
9222;SDS011;7557;51.698;3.942;2023-11-21T07:20:07;624.40;;;597.90;;
9222;SDS011;7557;51.698;3.942;2023-11-21T07:22:34;615.07;;;589.63;;
9222;SDS011;7557;51.698;3.942;2023-11-21T07:25:02;578.60;;;555.90;;
9222;SDS011;7557;51.698;3.942;2023-11-21T07:27:30;556.60;;;535.27;;
9222;SDS011;7557;51.698;3.942;2023-11-21T07:29:59;637.87;;;611.23;;
9222;SDS011;7557;51.698;3.942;2023-11-21T07:32:30;703.70;;;672.30;;
9222;SDS011;7557;51.698;3.942;2023-11-21T07:34:57;678.50;;;649.43;;
9222;SDS011;7557;51.698;3.942;2023-11-21T07:37:26;688.47;;;658.57;;
9222;SDS011;7557;51.698;3.942;2023-11-21T07:39:55;630.83;;;605.07;;
9222;SDS011;7557;51.698;3.942;2023-11-21T07:42:22;605.97;;;581.07;;
9222;SDS011;7557;51.698;3.942;2023-11-21T07:44:52;649.07;;;622.10;;
9222;SDS011;7557;51.698;3.942;2023-11-21T07:47:19;607.63;;;582.90;;
9222;SDS011;7557;51.698;3.942;2023-11-21T07:49:48;588.80;;;565.57;;
9222;SDS011;7557;51.698;3.942;2023-11-21T07:52:16;538.53;;;517.33;;
9222;SDS011;7557;51.698;3.942;2023-11-21T07:54:44;619.07;;;592.57;;
9222;SDS011;7557;51.698;3.942;2023-11-21T07:57:11;675.17;;;645.00;;
9222;SDS011;7557;51.698;3.942;2023-11-21T07:59:39;732.83;;;699.53;;
9222;SDS011;7557;51.698;3.942;2023-11-21T08:02:07;820.53;;;779.37;;
9222;SDS011;7557;51.698;3.942;2023-11-21T08:04:34;870.53;;;821.47;;
9222;SDS011;7557;51.698;3.942;2023-11-21T08:07:04;832.10;;;788.90;;
9222;SDS011;7557;51.698;3.942;2023-11-21T08:09:31;848.77;;;804.50;;
9222;SDS011;7557;51.698;3.942;2023-11-21T08:11:59;938.77;;;877.60;;
9222;SDS011;7557;51.698;3.942;2023-11-21T08:14:27;864.37;;;815.97;;
9222;SDS011;7557;51.698;3.942;2023-11-21T08:16:55;824.80;;;781.77;;
9222;SDS011;7557;51.698;3.942;2023-11-21T08:19:23;843.03;;;798.10;;
9222;SDS011;7557;51.698;3.942;2023-11-21T08:21:51;816.27;;;773.87;;
9222;SDS011;7557;51.698;3.942;2023-11-21T08:24:21;771.63;;;729.93;;
9222;SDS011;7557;51.698;3.942;2023-11-21T08:26:53;793.27;;;748.77;;
9222;SDS011;7557;51.698;3.942;2023-11-21T08:29:20;786.70;;;739.23;;
9222;SDS011;7557;51.698;3.942;2023-11-21T08:31:48;884.10;;;831.97;;
9222;SDS011;7557;51.698;3.942;2023-11-21T08:34:16;824.57;;;780.53;;
9222;SDS011;7557;51.698;3.942;2023-11-21T08:36:43;885.30;;;828.23;;
9222;SDS011;7557;51.698;3.942;2023-11-21T08:39:11;801.07;;;758.70;;
9222;SDS011;7557;51.698;3.942;2023-11-21T08:41:39;853.13;;;804.87;;
9222;SDS011;7557;51.698;3.942;2023-11-21T08:44:07;1113.23;;;999.80;;
9222;SDS011;7557;51.698;3.942;2023-11-21T08:46:34;889.37;;;834.27;;
9222;SDS011;7557;51.698;3.942;2023-11-21T08:49:03;855.00;;;809.33;;
9222;SDS011;7557;51.698;3.942;2023-11-21T08:51:31;902.90;;;850.57;;
9222;SDS011;7557;51.698;3.942;2023-11-21T08:53:58;932.17;;;872.70;;
9222;SDS011;7557;51.698;3.942;2023-11-21T08:56:29;1161.43;;;999.90;;
9222;SDS011;7557;51.698;3.942;2023-11-21T08:58:58;1078.53;;;987.80;;
9222;SDS011;7557;51.698;3.942;2023-11-21T09:01:27;994.93;;;918.30;;
9222;SDS011;7557;51.698;3.942;2023-11-21T09:03:56;906.13;;;848.27;;
9222;SDS011;7557;51.698;3.942;2023-11-21T09:06:24;943.87;;;874.67;;
9222;SDS011;7557;51.698;3.942;2023-11-21T09:08:51;819.73;;;775.30;;
9222;SDS011;7557;51.698;3.942;2023-11-21T09:11:19;753.03;;;716.33;;
9222;SDS011;7557;51.698;3.942;2023-11-21T09:13:46;966.83;;;891.43;;
9222;SDS011;7557;51.698;3.942;2023-11-21T09:16:19;872.70;;;816.97;;
9222;SDS011;7557;51.698;3.942;2023-11-21T09:18:46;1323.27;;;999.90;;
9222;SDS011;7557;51.698;3.942;2023-11-21T09:21:14;1071.13;;;830.83;;
9222;SDS011;7557;51.698;3.942;2023-11-21T09:23:42;854.03;;;799.07;;
9222;SDS011;7557;51.698;3.942;2023-11-21T09:26:11;769.27;;;728.37;;
9222;SDS011;7557;51.698;3.942;2023-11-21T09:28:41;686.77;;;654.30;;
9222;SDS011;7557;51.698;3.942;2023-11-21T09:31:11;761.50;;;721.10;;
9222;SDS011;7557;51.698;3.942;2023-11-21T09:33:43;918.13;;;819.07;;
9222;SDS011;7557;51.698;3.942;2023-11-21T09:36:11;883.63;;;804.43;;
9222;SDS011;7557;51.698;3.942;2023-11-21T09:38:40;1022.17;;;905.00;;
9222;SDS011;7557;51.698;3.942;2023-11-21T09:41:10;1075.73;;;802.20;;
9222;SDS011;7557;51.698;3.942;2023-11-21T09:43:44;1999.90;;;903.27;;
9222;SDS011;7557;51.698;3.942;2023-11-21T09:46:14;826.43;;;766.23;;
9222;SDS011;7557;51.698;3.942;2023-11-21T09:48:48;713.63;;;667.50;;
9222;SDS011;7557;51.698;3.942;2023-11-21T09:51:18;856.65;;;798.22;;
9222;SDS011;7557;51.698;3.942;2023-11-21T09:53:48;1526.15;;;999.90;;
9222;SDS011;7557;51.698;3.942;2023-11-21T09:56:18;1275.87;;;910.13;;
9222;SDS011;7557;51.698;3.942;2023-11-21T09:58:50;815.40;;;762.90;;
9222;SDS011;7557;51.698;3.942;2023-11-21T10:01:21;694.03;;;638.30;;
9222;SDS011;7557;51.698;3.942;2023-11-21T10:03:52;745.88;;;700.33;;
9222;SDS011;7557;51.698;3.942;2023-11-21T10:06:21;1291.40;;;966.00;;
9222;SDS011;7557;51.698;3.942;2023-11-21T10:08:52;1681.20;;;929.15;;
9222;SDS011;7557;51.698;3.942;2023-11-21T10:11:22;1912.53;;;815.17;;
9222;SDS011;7557;51.698;3.942;2023-11-21T10:13:53;1437.23;;;951.77;;
9222;SDS011;7557;51.698;3.942;2023-11-21T10:16:22;915.23;;;823.80;;
9222;SDS011;7557;51.698;3.942;2023-11-21T10:18:57;912.90;;;835.90;;
9222;SDS011;7557;51.698;3.942;2023-11-21T10:21:26;852.20;;;791.60;;
9222;SDS011;7557;51.698;3.942;2023-11-21T10:23:53;1543.47;;;938.57;;
9222;SDS011;7557;51.698;3.942;2023-11-21T10:26:22;832.33;;;755.10;;
9222;SDS011;7557;51.698;3.942;2023-11-21T10:28:55;930.53;;;827.70;;
9222;SDS011;7557;51.698;3.942;2023-11-21T10:31:23;1693.10;;;915.63;;
9222;SDS011;7557;51.698;3.942;2023-11-21T10:33:50;1999.90;;;999.90;;
9222;SDS011;7557;51.698;3.942;2023-11-21T10:36:26;947.27;;;862.57;;
9222;SDS011;7557;51.698;3.942;2023-11-21T10:38:54;838.10;;;748.70;;
9222;SDS011;7557;51.698;3.942;2023-11-21T10:41:22;1770.27;;;999.43;;
9222;SDS011;7557;51.698;3.942;2023-11-21T10:43:52;1620.43;;;958.03;;
9222;SDS011;7557;51.698;3.942;2023-11-21T10:46:22;868.70;;;775.87;;
9222;SDS011;7557;51.698;3.942;2023-11-21T10:48:52;919.63;;;847.60;;
9222;SDS011;7557;51.698;3.942;2023-11-21T10:51:21;916.23;;;827.83;;
9222;SDS011;7557;51.698;3.942;2023-11-21T10:53:51;973.90;;;880.67;;
9222;SDS011;7557;51.698;3.942;2023-11-21T10:56:18;1999.90;;;972.92;;
9222;SDS011;7557;51.698;3.942;2023-11-21T10:58:51;1842.90;;;999.90;;
9222;SDS011;7557;51.698;3.942;2023-11-21T11:01:19;1557.30;;;966.57;;
9222;SDS011;7557;51.698;3.942;2023-11-21T11:03:49;1999.90;;;999.90;;
9222;SDS011;7557;51.698;3.942;2023-11-21T11:06:20;1277.90;;;929.87;;
9222;SDS011;7557;51.698;3.942;2023-11-21T11:08:48;1491.07;;;904.50;;
9222;SDS011;7557;51.698;3.942;2023-11-21T11:11:18;807.57;;;754.50;;
9222;SDS011;7557;51.698;3.942;2023-11-21T11:13:45;1074.07;;;971.60;;
9222;SDS011;7557;51.698;3.942;2023-11-21T11:16:13;1437.30;;;887.77;;
9222;SDS011;7557;51.698;3.942;2023-11-21T11:18:43;982.05;;;884.17;;
9222;SDS011;7557;51.698;3.942;2023-11-21T11:21:16;955.80;;;840.67;;
9222;SDS011;7557;51.698;3.942;2023-11-21T11:24:01;1999.90;;;979.90;;
9222;SDS011;7557;51.698;3.942;2023-11-21T11:26:42;1013.57;;;904.83;;
9222;SDS011;7557;51.698;3.942;2023-11-21T11:29:19;1956.50;;;950.47;;
9222;SDS011;7557;51.698;3.942;2023-11-21T11:32:00;798.87;;;738.60;;
9222;SDS011;7557;51.698;3.942;2023-11-21T11:34:40;1450.82;;;935.10;;
9222;SDS011;7557;51.698;3.942;2023-11-21T11:37:12;726.93;;;683.43;;
9222;SDS011;7557;51.698;3.942;2023-11-21T11:39:42;1745.30;;;935.27;;
9222;SDS011;7557;51.698;3.942;2023-11-21T11:42:11;1143.80;;;850.57;;
9222;SDS011;7557;51.698;3.942;2023-11-21T11:44:50;1414.13;;;931.93;;
9222;SDS011;7557;51.698;3.942;2023-11-21T11:47:22;840.83;;;764.90;;
9222;SDS011;7557;51.698;3.942;2023-11-21T11:49:57;1661.70;;;974.03;;
9222;SDS011;7557;51.698;3.942;2023-11-21T11:52:33;878.50;;;756.67;;
9222;SDS011;7557;51.698;3.942;2023-11-21T11:55:04;1638.70;;;832.65;;
9222;SDS011;7557;51.698;3.942;2023-11-21T11:57:35;450.70;;;427.65;;
9222;SDS011;7557;51.698;3.942;2023-11-21T12:00:07;658.57;;;596.87;;
9222;SDS011;7557;51.698;3.942;2023-11-21T12:02:37;842.73;;;629.40;;
9222;SDS011;7557;51.698;3.942;2023-11-21T12:05:08;1977.93;;;991.47;;
9222;SDS011;7557;51.698;3.942;2023-11-21T12:07:51;696.77;;;642.30;;
9222;SDS011;7557;51.698;3.942;2023-11-21T12:10:21;735.83;;;666.87;;
9222;SDS011;7557;51.698;3.942;2023-11-21T12:12:51;358.27;;;343.53;;
9222;SDS011;7557;51.698;3.942;2023-11-21T12:15:19;812.57;;;707.20;;
9222;SDS011;7557;51.698;3.942;2023-11-21T12:17:48;926.57;;;835.60;;
9222;SDS011;7557;51.698;3.942;2023-11-21T12:20:18;969.72;;;764.90;;
9222;SDS011;7557;51.698;3.942;2023-11-21T12:22:46;787.85;;;722.85;;
9222;SDS011;7557;51.698;3.942;2023-11-21T12:25:15;938.03;;;843.13;;
9222;SDS011;7557;51.698;3.942;2023-11-21T12:27:46;1624.53;;;999.90;;
9222;SDS011;7557;51.698;3.942;2023-11-21T12:30:14;799.70;;;735.73;;
9222;SDS011;7557;51.698;3.942;2023-11-21T12:32:44;948.00;;;807.53;;
9222;SDS011;7557;51.698;3.942;2023-11-21T12:35:12;514.20;;;479.63;;
9222;SDS011;7557;51.698;3.942;2023-11-21T12:37:41;1147.27;;;858.37;;
9222;SDS011;7557;51.698;3.942;2023-11-21T12:40:09;857.60;;;772.23;;
9222;SDS011;7557;51.698;3.942;2023-11-21T12:42:40;713.23;;;658.50;;
9222;SDS011;7557;51.698;3.942;2023-11-21T12:45:18;656.73;;;616.53;;
9222;SDS011;7557;51.698;3.942;2023-11-21T12:47:47;373.83;;;358.63;;
9222;SDS011;7557;51.698;3.942;2023-11-21T12:50:15;299.90;;;288.13;;
9222;SDS011;7557;51.698;3.942;2023-11-21T12:52:49;825.37;;;748.73;;
9222;SDS011;7557;51.698;3.942;2023-11-21T12:55:21;979.80;;;810.97;;
9222;SDS011;7557;51.698;3.942;2023-11-21T12:57:49;486.30;;;463.67;;
9222;SDS011;7557;51.698;3.942;2023-11-21T13:00:27;554.63;;;508.50;;
9222;SDS011;7557;51.698;3.942;2023-11-21T13:02:58;805.50;;;724.00;;
9222;SDS011;7557;51.698;3.942;2023-11-21T13:05:26;958.80;;;839.77;;
9222;SDS011;7557;51.698;3.942;2023-11-21T13:07:55;930.33;;;810.03;;
9222;SDS011;7557;51.698;3.942;2023-11-21T13:10:24;397.70;;;377.67;;
9222;SDS011;7557;51.698;3.942;2023-11-21T13:12:56;716.83;;;657.58;;
9222;SDS011;7557;51.698;3.942;2023-11-21T13:15:27;607.17;;;574.97;;
9222;SDS011;7557;51.698;3.942;2023-11-21T13:17:56;547.03;;;518.37;;
9222;SDS011;7557;51.698;3.942;2023-11-21T13:20:25;880.53;;;808.97;;
9222;SDS011;7557;51.698;3.942;2023-11-21T13:22:53;362.35;;;347.05;;
9222;SDS011;7557;51.698;3.942;2023-11-21T13:25:24;528.37;;;497.10;;
9222;SDS011;7557;51.698;3.942;2023-11-21T13:27:53;306.58;;;292.45;;
9222;SDS011;7557;51.698;3.942;2023-11-21T13:30:21;530.40;;;503.70;;
9222;SDS011;7557;51.698;3.942;2023-11-21T13:32:53;333.73;;;320.67;;
9222;SDS011;7557;51.698;3.942;2023-11-21T13:35:22;646.17;;;573.72;;
9222;SDS011;7557;51.698;3.942;2023-11-21T13:37:56;445.10;;;423.13;;
9222;SDS011;7557;51.698;3.942;2023-11-21T13:40:29;413.50;;;394.40;;
9222;SDS011;7557;51.698;3.942;2023-11-21T13:42:56;266.15;;;255.68;;
9222;SDS011;7557;51.698;3.942;2023-11-21T13:45:25;661.07;;;619.53;;
9222;SDS011;7557;51.698;3.942;2023-11-21T13:47:57;498.25;;;474.75;;
9222;SDS011;7557;51.698;3.942;2023-11-21T13:50:25;683.50;;;639.63;;
9222;SDS011;7557;51.698;3.942;2023-11-21T13:52:58;298.47;;;285.50;;
9222;SDS011;7557;51.698;3.942;2023-11-21T13:55:34;331.67;;;318.53;;
9222;SDS011;7557;51.698;3.942;2023-11-21T13:58:02;245.48;;;237.18;;
9222;SDS011;7557;51.698;3.942;2023-11-21T14:00:34;172.93;;;167.17;;
9222;SDS011;7557;51.698;3.942;2023-11-21T14:03:17;238.73;;;229.53;;
9222;SDS011;7557;51.698;3.942;2023-11-21T14:05:47;185.53;;;178.77;;
9222;SDS011;7557;51.698;3.942;2023-11-21T14:08:17;331.33;;;318.13;;
9222;SDS011;7557;51.698;3.942;2023-11-21T14:10:49;403.07;;;383.07;;
9222;SDS011;7557;51.698;3.942;2023-11-21T14:13:20;307.13;;;294.27;;
9222;SDS011;7557;51.698;3.942;2023-11-21T14:15:48;326.97;;;314.10;;
9222;SDS011;7557;51.698;3.942;2023-11-21T14:18:24;253.73;;;244.00;;
9222;SDS011;7557;51.698;3.942;2023-11-21T14:20:55;299.00;;;282.10;;
9222;SDS011;7557;51.698;3.942;2023-11-21T14:23:23;306.30;;;294.75;;
9222;SDS011;7557;51.698;3.942;2023-11-21T14:25:50;661.67;;;622.13;;
9222;SDS011;7557;51.698;3.942;2023-11-21T14:28:18;203.03;;;196.00;;
9222;SDS011;7557;51.698;3.942;2023-11-21T14:30:46;137.17;;;132.03;;
9222;SDS011;7557;51.698;3.942;2023-11-21T14:33:14;116.33;;;112.20;;
9222;SDS011;7557;51.698;3.942;2023-11-21T14:35:43;361.40;;;346.97;;